createdAt,value
2017-09-03T00:02:23.363Z,4.13
2017-09-03T00:04:51.394Z,6.57
2017-09-03T00:07:18.951Z,5.57
2017-09-03T00:09:46.507Z,5.10
2017-09-03T00:12:14.122Z,9.50
2017-09-03T00:14:41.676Z,5.17
2017-09-03T00:17:09.651Z,4.50
2017-09-03T00:19:37.201Z,7.47
2017-09-03T00:22:04.893Z,6.90
2017-09-03T00:24:32.482Z,6.20
2017-09-03T00:27:00.040Z,7.67
2017-09-03T00:29:28.022Z,6.80
2017-09-03T00:31:55.593Z,4.70
2017-09-03T00:34:23.157Z,4.60
2017-09-03T00:36:50.810Z,8.67
2017-09-03T00:39:18.370Z,9.87
2017-09-03T00:41:46.330Z,10.40
2017-09-03T00:44:13.892Z,5.73
2017-09-03T00:46:41.451Z,5.77
2017-09-03T00:49:09.044Z,10.07
2017-09-03T00:51:36.586Z,5.07
2017-09-03T00:54:04.618Z,6.30
2017-09-03T00:56:32.181Z,5.90
2017-09-03T00:58:59.733Z,6.57
2017-09-03T01:01:27.377Z,6.10
2017-09-03T01:03:54.950Z,9.70
2017-09-03T01:06:22.947Z,7.50
2017-09-03T01:08:50.508Z,7.73
2017-09-03T01:11:18.075Z,17.93
2017-09-03T01:13:45.681Z,7.40
2017-09-03T01:16:13.241Z,13.30
2017-09-03T01:18:41.092Z,12.30
2017-09-03T01:21:08.660Z,6.83
2017-09-03T01:23:36.222Z,8.70
2017-09-03T01:26:03.811Z,6.23
2017-09-03T01:28:31.376Z,8.90
2017-09-03T01:30:59.229Z,9.67
2017-09-03T01:33:26.789Z,8.33
2017-09-03T01:35:54.355Z,4.90
2017-09-03T01:38:21.971Z,11.07
2017-09-03T01:40:49.536Z,6.13
2017-09-03T01:43:17.448Z,10.00
2017-09-03T01:45:45.010Z,8.57
2017-09-03T01:48:12.578Z,6.27
2017-09-03T01:50:40.155Z,6.50
2017-09-03T01:53:07.700Z,7.03
2017-09-03T01:55:35.576Z,7.10
2017-09-03T01:58:03.135Z,8.60
2017-09-03T02:00:30.688Z,6.23
2017-09-03T02:02:58.285Z,5.83
2017-09-03T02:05:25.865Z,6.73
2017-09-03T02:07:53.874Z,6.80
2017-09-03T02:10:21.439Z,11.23
2017-09-03T02:12:49.011Z,7.73
2017-09-03T02:15:16.631Z,7.40
2017-09-03T02:17:44.318Z,8.60
2017-09-03T02:20:12.184Z,7.90
2017-09-03T02:22:39.759Z,10.03
2017-09-03T02:25:07.347Z,7.20
2017-09-03T02:27:34.932Z,9.93
2017-09-03T02:30:02.628Z,8.40
2017-09-03T02:32:30.697Z,10.83
2017-09-03T02:34:58.280Z,7.93
2017-09-03T02:37:25.862Z,7.63
2017-09-03T02:39:53.458Z,7.87
2017-09-03T02:42:21.138Z,7.10
2017-09-03T02:44:48.993Z,9.70
2017-09-03T02:47:16.570Z,11.13
2017-09-03T02:49:44.151Z,7.57
2017-09-03T02:52:11.747Z,10.37
2017-09-03T02:54:39.318Z,8.93
2017-09-03T02:57:07.184Z,7.93
2017-09-03T02:59:34.781Z,11.43
2017-09-03T03:02:02.343Z,8.27
2017-09-03T03:04:29.945Z,10.00
2017-09-03T03:06:57.509Z,14.83
2017-09-03T03:09:25.385Z,7.77
2017-09-03T03:11:52.951Z,12.80
2017-09-03T03:14:20.562Z,18.87
2017-09-03T03:16:48.201Z,10.60
2017-09-03T03:19:15.782Z,8.70
2017-09-03T03:21:43.727Z,9.20
2017-09-03T03:24:11.294Z,14.70
2017-09-03T03:26:38.872Z,8.77
2017-09-03T03:29:06.465Z,9.30
2017-09-03T03:31:34.028Z,10.03
2017-09-03T03:34:02.045Z,8.10
2017-09-03T03:36:29.620Z,9.50
2017-09-03T03:38:57.159Z,11.23
2017-09-03T03:41:24.739Z,11.00
2017-09-03T03:43:52.301Z,8.30
2017-09-03T03:46:20.342Z,6.20
2017-09-03T03:48:47.891Z,9.33
2017-09-03T03:51:15.460Z,8.83
2017-09-03T03:53:43.059Z,10.10
2017-09-03T03:56:10.624Z,11.70
2017-09-03T03:58:38.477Z,11.80
2017-09-03T04:01:06.046Z,8.13
2017-09-03T04:03:33.807Z,11.27
2017-09-03T04:06:01.441Z,10.17
2017-09-03T04:08:29.006Z,11.33
2017-09-03T04:10:56.956Z,11.37
2017-09-03T04:13:24.624Z,12.43
2017-09-03T04:15:52.179Z,9.13
2017-09-03T04:18:19.786Z,10.33
2017-09-03T04:20:47.348Z,7.40
2017-09-03T04:23:15.209Z,12.77
2017-09-03T04:25:42.789Z,9.57
2017-09-03T04:28:10.345Z,12.00
2017-09-03T04:30:37.947Z,27.03
2017-09-03T04:33:05.531Z,12.00
2017-09-03T04:35:33.577Z,10.80
2017-09-03T04:38:01.136Z,12.87
2017-09-03T04:40:28.723Z,14.70
2017-09-03T04:42:56.325Z,16.97
2017-09-03T04:45:23.867Z,13.90
2017-09-03T04:47:51.891Z,12.40
2017-09-03T04:50:19.453Z,14.13
2017-09-03T04:52:47.013Z,17.07
2017-09-03T04:55:14.618Z,11.90
2017-09-03T04:57:42.167Z,12.47
2017-09-03T05:00:10.206Z,13.27
2017-09-03T05:02:37.763Z,9.87
2017-09-03T05:05:05.342Z,11.40
2017-09-03T05:07:32.945Z,13.20
2017-09-03T05:10:00.532Z,11.97
2017-09-03T05:12:28.504Z,15.50
2017-09-03T05:14:56.069Z,15.17
2017-09-03T05:17:23.650Z,11.60
2017-09-03T05:19:51.260Z,12.90
2017-09-03T05:22:18.818Z,12.30
2017-09-03T05:24:46.812Z,13.87
2017-09-03T05:27:14.365Z,13.80
2017-09-03T05:29:41.953Z,13.77
2017-09-03T05:32:09.536Z,11.20
2017-09-03T05:34:37.082Z,10.30
2017-09-03T05:37:05.118Z,11.13
2017-09-03T05:39:32.831Z,11.70
2017-09-03T05:42:00.402Z,15.00
2017-09-03T05:44:28.083Z,13.10
2017-09-03T05:46:55.642Z,11.60
2017-09-03T05:49:23.827Z,13.93
2017-09-03T05:51:51.454Z,14.80
2017-09-03T05:54:19.026Z,15.37
2017-09-03T05:56:46.674Z,18.70
2017-09-03T05:59:14.232Z,12.57
2017-09-03T06:01:42.148Z,17.27
2017-09-03T06:04:09.711Z,17.60
2017-09-03T06:06:37.277Z,13.77
2017-09-03T06:09:04.871Z,13.37
2017-09-03T06:11:32.431Z,13.80
2017-09-03T06:14:00.456Z,14.13
2017-09-03T06:16:28.042Z,13.40
2017-09-03T06:18:55.616Z,16.70
2017-09-03T06:21:23.288Z,13.90
2017-09-03T06:23:50.848Z,11.70
2017-09-03T06:26:18.858Z,12.43
2017-09-03T06:28:46.426Z,16.00
2017-09-03T06:31:14.010Z,24.60
2017-09-03T06:33:41.608Z,12.50
2017-09-03T06:36:09.174Z,17.40
2017-09-03T06:38:37.075Z,16.77
2017-09-03T06:41:04.653Z,12.30
2017-09-03T06:43:32.226Z,10.53
2017-09-03T06:45:59.893Z,9.77
2017-09-03T06:48:27.509Z,17.90
2017-09-03T06:50:55.758Z,19.03
2017-09-03T06:53:23.328Z,14.73
2017-09-03T06:55:50.913Z,11.47
2017-09-03T06:58:18.548Z,12.90
2017-09-03T07:00:46.142Z,21.00
2017-09-03T07:03:14.113Z,14.13
2017-09-03T07:05:41.714Z,19.47
2017-09-03T07:08:09.465Z,15.00
2017-09-03T07:10:37.096Z,12.87
2017-09-03T07:13:04.796Z,16.30
2017-09-03T07:15:32.816Z,16.23
2017-09-03T07:18:00.388Z,13.70
2017-09-03T07:20:27.997Z,13.50
2017-09-03T07:22:55.586Z,15.13
2017-09-03T07:25:23.170Z,12.50
2017-09-03T07:27:51.347Z,15.43
2017-09-03T07:30:18.910Z,14.27
2017-09-03T07:32:46.482Z,11.30
2017-09-03T07:35:14.281Z,15.33
2017-09-03T07:37:41.842Z,13.20
2017-09-03T07:40:09.839Z,12.37
2017-09-03T07:42:37.416Z,12.60
2017-09-03T07:45:04.989Z,12.90
2017-09-03T07:47:32.594Z,13.23
2017-09-03T07:50:00.160Z,14.77
2017-09-03T07:52:28.164Z,13.73
2017-09-03T07:54:55.720Z,13.93
2017-09-03T07:57:23.286Z,14.40
2017-09-03T07:59:50.900Z,10.33
2017-09-03T08:02:18.470Z,12.53
2017-09-03T08:04:46.480Z,12.27
2017-09-03T08:07:14.056Z,14.60
2017-09-03T08:09:41.622Z,12.90
2017-09-03T08:12:09.254Z,14.20
2017-09-03T08:14:36.812Z,13.10
2017-09-03T08:17:04.859Z,14.77
2017-09-03T08:19:32.438Z,13.53
2017-09-03T08:22:00.158Z,11.23
2017-09-03T08:24:27.788Z,12.30
2017-09-03T08:26:55.401Z,12.57
2017-09-03T08:29:23.316Z,14.93
2017-09-03T08:31:50.906Z,13.83
2017-09-03T08:34:18.479Z,15.83
2017-09-03T08:36:46.124Z,14.13
2017-09-03T08:39:13.713Z,12.83
2017-09-03T08:41:41.788Z,16.20
2017-09-03T08:44:09.367Z,12.10
2017-09-03T08:46:36.946Z,14.27
2017-09-03T08:49:04.547Z,12.40
2017-09-03T08:51:32.124Z,14.10
2017-09-03T08:54:00.056Z,16.23
2017-09-03T08:56:27.733Z,13.67
2017-09-03T08:58:55.372Z,16.00
2017-09-03T09:01:22.970Z,12.90
2017-09-03T09:03:50.539Z,14.70
2017-09-03T09:06:18.429Z,14.03
2017-09-03T09:08:46.150Z,14.10
2017-09-03T09:11:13.721Z,20.10
2017-09-03T09:13:41.328Z,25.00
2017-09-03T09:16:08.893Z,13.20
2017-09-03T09:18:36.940Z,16.37
2017-09-03T09:21:04.517Z,11.20
2017-09-03T09:23:32.096Z,15.43
2017-09-03T09:25:59.713Z,12.03
2017-09-03T09:28:27.304Z,11.77
2017-09-03T09:30:55.226Z,11.50
2017-09-03T09:33:22.816Z,13.00
2017-09-03T09:35:50.378Z,9.87
2017-09-03T09:38:17.973Z,9.00
2017-09-03T09:40:45.654Z,13.70
2017-09-03T09:43:13.663Z,11.40
2017-09-03T09:45:41.462Z,15.87
2017-09-03T09:48:09.052Z,9.50
2017-09-03T09:50:36.730Z,11.87
2017-09-03T09:53:04.335Z,12.97
2017-09-03T09:55:32.263Z,14.40
2017-09-03T09:57:59.971Z,15.20
2017-09-03T10:00:27.532Z,15.90
2017-09-03T10:02:55.166Z,12.53
2017-09-03T10:05:22.737Z,10.50
2017-09-03T10:07:50.764Z,9.37
2017-09-03T10:10:18.368Z,11.23
2017-09-03T10:12:45.969Z,10.20
2017-09-03T10:15:13.777Z,7.60
2017-09-03T10:17:41.366Z,8.33
2017-09-03T10:20:09.667Z,10.00
2017-09-03T10:22:37.246Z,8.00
2017-09-03T10:25:04.851Z,11.57
2017-09-03T10:27:33.250Z,8.80
2017-09-03T10:30:00.819Z,5.73
2017-09-03T10:35:02.721Z,5.93
2017-09-03T10:37:30.684Z,8.90
2017-09-03T10:39:58.264Z,10.80
2017-09-03T10:42:25.842Z,6.73
2017-09-03T10:44:53.501Z,6.90
2017-09-03T10:47:21.063Z,8.37
2017-09-03T10:49:48.963Z,6.73
2017-09-03T10:52:16.550Z,10.50
2017-09-03T10:54:44.170Z,3.27
2017-09-03T10:57:11.834Z,2.03
2017-09-03T10:59:39.433Z,3.23
2017-09-03T11:02:07.697Z,5.97
2017-09-03T11:04:35.462Z,7.37
2017-09-03T11:07:03.040Z,7.47
2017-09-03T11:09:30.695Z,4.30
2017-09-03T11:11:58.252Z,3.43
2017-09-03T11:14:26.253Z,4.17
2017-09-03T11:16:54.033Z,4.33
2017-09-03T11:19:21.584Z,2.17
2017-09-03T11:21:49.188Z,2.10
2017-09-03T11:24:16.753Z,4.10
2017-09-03T11:26:44.639Z,11.63
2017-09-03T11:29:12.233Z,6.70
2017-09-03T11:31:39.799Z,2.33
2017-09-03T11:34:07.435Z,3.43
2017-09-03T11:36:35.007Z,6.93
2017-09-03T11:39:03.066Z,4.73
2017-09-03T11:41:30.636Z,2.50
2017-09-03T11:43:58.210Z,3.73
2017-09-03T11:46:26.005Z,3.30
2017-09-03T11:48:53.623Z,6.57
2017-09-03T11:51:21.807Z,3.00
2017-09-03T11:53:49.406Z,3.53
2017-09-03T11:56:16.983Z,5.80
2017-09-03T11:58:44.619Z,4.73
2017-09-03T12:01:12.201Z,5.13
2017-09-03T12:03:40.095Z,2.30
2017-09-03T12:06:07.640Z,3.47
2017-09-03T12:08:35.226Z,5.83
2017-09-03T12:11:02.832Z,7.50
2017-09-03T12:13:30.428Z,4.97
2017-09-03T12:15:58.412Z,3.63
2017-09-03T12:18:26.013Z,3.23
2017-09-03T12:20:53.608Z,4.40
2017-09-03T12:23:21.242Z,3.53
2017-09-03T12:25:48.822Z,2.97
2017-09-03T12:28:16.684Z,7.13
2017-09-03T12:30:44.240Z,2.67
2017-09-03T12:33:11.834Z,2.40
2017-09-03T12:35:39.465Z,5.23
2017-09-03T12:38:07.017Z,6.63
2017-09-03T12:40:35.024Z,4.20
2017-09-03T12:43:02.663Z,4.33
2017-09-03T12:45:30.254Z,4.13
2017-09-03T12:47:57.839Z,9.43
2017-09-03T12:50:25.445Z,4.83
2017-09-03T12:52:53.540Z,3.33
2017-09-03T12:55:21.100Z,3.30
2017-09-03T12:57:48.660Z,3.67
2017-09-03T13:00:16.289Z,2.50
2017-09-03T13:02:43.850Z,2.23
2017-09-03T13:05:11.791Z,2.37
2017-09-03T13:07:39.354Z,4.20
2017-09-03T13:10:07.781Z,1.90
2017-09-03T13:12:35.411Z,5.20
2017-09-03T13:15:02.985Z,3.40
2017-09-03T13:17:30.991Z,3.07
2017-09-03T13:19:58.565Z,3.50
2017-09-03T13:22:26.144Z,2.37
2017-09-03T13:24:53.745Z,4.83
2017-09-03T13:27:21.326Z,2.40
2017-09-03T13:29:49.281Z,5.30
2017-09-03T13:32:16.885Z,2.70
2017-09-03T13:34:44.436Z,3.43
2017-09-03T13:37:12.041Z,2.00
2017-09-03T13:39:39.607Z,2.53
2017-09-03T13:42:07.611Z,2.93
2017-09-03T13:44:35.217Z,2.00
2017-09-03T13:47:02.801Z,5.37
2017-09-03T13:49:30.429Z,2.17
2017-09-03T13:51:58.002Z,1.40
2017-09-03T13:54:25.865Z,6.00
2017-09-03T13:56:53.466Z,3.13
2017-09-03T13:59:21.090Z,2.20
2017-09-03T14:01:48.716Z,3.27
2017-09-03T14:04:17.125Z,3.80
2017-09-03T14:06:45.039Z,3.57
2017-09-03T14:09:12.610Z,2.23
2017-09-03T14:11:40.190Z,1.87
2017-09-03T14:14:07.913Z,1.80
2017-09-03T14:16:35.476Z,2.73
2017-09-03T14:19:03.539Z,1.20
2017-09-03T14:21:31.132Z,2.17
2017-09-03T14:23:58.869Z,3.23
2017-09-03T14:26:26.476Z,1.93
2017-09-03T14:28:54.056Z,1.97
2017-09-03T14:31:21.966Z,2.27
2017-09-03T14:33:49.766Z,1.83
2017-09-03T14:36:17.359Z,2.20
2017-09-03T14:38:44.970Z,2.73
2017-09-03T14:41:12.538Z,1.97
2017-09-03T14:43:40.496Z,1.57
2017-09-03T14:46:08.096Z,3.43
2017-09-03T14:48:35.750Z,2.43
2017-09-03T14:51:03.369Z,1.67
2017-09-03T14:53:30.958Z,2.03
2017-09-03T14:55:58.832Z,1.77
2017-09-03T14:58:26.432Z,2.00
2017-09-03T15:00:53.989Z,1.60
2017-09-03T15:03:21.601Z,2.50
2017-09-03T15:05:49.161Z,2.00
2017-09-03T15:08:17.090Z,1.40
2017-09-03T15:10:44.645Z,3.30
2017-09-03T15:13:12.204Z,8.13
2017-09-03T15:15:39.813Z,7.97
2017-09-03T15:18:07.369Z,2.67
2017-09-03T15:20:35.421Z,9.70
2017-09-03T15:23:02.989Z,8.93
2017-09-03T15:25:30.547Z,2.60
2017-09-03T15:27:58.217Z,3.10
2017-09-03T15:30:25.802Z,1.83
2017-09-03T15:32:53.725Z,2.37
2017-09-03T15:35:21.278Z,2.80
2017-09-03T15:37:49.046Z,5.30
2017-09-03T15:40:16.653Z,3.50
2017-09-03T15:42:44.235Z,4.27
2017-09-03T15:45:12.197Z,5.40
2017-09-03T15:47:39.781Z,5.20
2017-09-03T15:50:07.367Z,15.10
2017-09-03T15:52:34.971Z,3.43
2017-09-03T15:55:02.542Z,2.20
2017-09-03T15:57:30.559Z,6.97
2017-09-03T15:59:58.103Z,3.37
2017-09-03T16:02:25.678Z,3.30
2017-09-03T16:04:53.294Z,2.50
2017-09-03T16:07:20.843Z,2.47
2017-09-03T16:09:48.855Z,7.73
2017-09-03T16:12:16.489Z,4.00
2017-09-03T16:14:44.101Z,3.13
2017-09-03T16:17:11.713Z,6.43
2017-09-03T16:19:39.286Z,6.20
2017-09-03T16:22:07.364Z,2.00
2017-09-03T16:24:34.942Z,2.60
2017-09-03T16:27:02.496Z,4.60
2017-09-03T16:29:30.875Z,1.90
2017-09-03T16:31:58.454Z,3.87
2017-09-03T16:34:26.325Z,2.77
2017-09-03T16:36:53.882Z,1.50
2017-09-03T16:39:21.464Z,3.73
2017-09-03T16:41:49.068Z,4.30
2017-09-03T16:44:16.613Z,2.63
2017-09-03T16:46:44.597Z,2.43
2017-09-03T16:49:12.159Z,2.70
2017-09-03T16:51:39.751Z,4.10
2017-09-03T16:54:07.351Z,3.80
2017-09-03T16:56:34.925Z,3.60
2017-09-03T16:59:03.919Z,5.07
2017-09-03T17:01:31.519Z,3.43
2017-09-03T17:03:59.103Z,3.37
2017-09-03T17:06:26.825Z,4.47
2017-09-03T17:08:54.397Z,3.80
2017-09-03T17:11:22.447Z,3.13
2017-09-03T17:13:50.041Z,4.40
2017-09-03T17:16:17.610Z,7.80
2017-09-03T17:18:45.198Z,8.70
2017-09-03T17:21:12.772Z,2.70
2017-09-03T17:23:40.647Z,3.50
2017-09-03T17:26:08.369Z,2.87
2017-09-03T17:28:35.922Z,5.40
2017-09-03T17:31:04.124Z,4.80
2017-09-03T17:33:31.854Z,2.67
2017-09-03T17:36:18.229Z,2.80
2017-09-03T17:39:01.421Z,3.10
2017-09-03T17:41:32.063Z,3.93
2017-09-03T17:44:01.032Z,5.17
2017-09-03T17:46:35.387Z,4.63
2017-09-03T17:49:02.969Z,3.30
2017-09-03T17:51:30.573Z,5.97
2017-09-03T17:53:58.202Z,6.20
2017-09-03T17:56:25.792Z,15.30
2017-09-03T17:58:53.694Z,6.47
2017-09-03T18:01:21.315Z,6.90
2017-09-03T18:03:48.897Z,4.80
2017-09-03T18:06:16.683Z,15.30
2017-09-03T18:08:45.174Z,8.20
2017-09-03T18:11:13.235Z,5.97
2017-09-03T18:13:40.833Z,4.23
2017-09-03T18:16:08.517Z,3.33
2017-09-03T18:18:36.136Z,4.40
2017-09-03T18:21:03.703Z,3.20
2017-09-03T18:23:31.740Z,6.17
2017-09-03T18:25:59.365Z,3.63
2017-09-03T18:28:29.336Z,6.37
2017-09-03T18:30:59.597Z,6.77
2017-09-03T18:33:27.153Z,6.37
2017-09-03T18:39:10.598Z,4.47
2017-09-03T18:41:38.195Z,4.07
2017-09-03T18:44:12.205Z,6.20
2017-09-03T18:46:39.814Z,5.60
2017-09-03T18:49:07.403Z,7.30
2017-09-03T18:51:45.259Z,4.77
2017-09-03T18:54:14.386Z,4.10
2017-09-03T18:56:41.960Z,4.53
2017-09-03T18:59:15.455Z,4.57
2017-09-03T19:01:43.047Z,5.47
2017-09-03T19:04:11.835Z,5.27
2017-09-03T19:06:39.404Z,3.67
2017-09-03T19:09:06.984Z,6.13
2017-09-03T19:11:34.608Z,4.20
2017-09-03T19:14:02.322Z,7.60
2017-09-03T19:16:30.422Z,7.30
2017-09-03T19:18:58.032Z,6.23
2017-09-03T19:21:25.600Z,5.77
2017-09-03T19:23:53.398Z,5.17
2017-09-03T19:26:22.189Z,5.67
2017-09-03T19:28:50.104Z,5.13
2017-09-03T19:31:17.706Z,6.30
2017-09-03T19:33:48.109Z,10.90
2017-09-03T19:36:15.952Z,3.43
2017-09-03T19:38:43.027Z,6.83
2017-09-03T19:41:10.951Z,7.87
2017-09-03T19:43:38.538Z,3.93
2017-09-03T19:46:06.111Z,4.97
2017-09-03T19:48:33.752Z,8.13
2017-09-03T19:51:01.353Z,4.30
2017-09-03T19:53:29.229Z,6.00
2017-09-03T19:55:56.786Z,5.33
2017-09-03T19:58:24.373Z,5.60
2017-09-03T20:00:52.052Z,4.50
2017-09-03T20:03:19.634Z,3.47
2017-09-03T20:05:47.711Z,6.17
2017-09-03T20:08:15.309Z,9.73
2017-09-03T20:10:42.867Z,6.73
2017-09-03T20:13:10.493Z,5.10
2017-09-03T20:15:38.825Z,3.50
2017-09-03T20:18:06.709Z,3.63
2017-09-03T20:20:34.273Z,4.47
2017-09-03T20:23:01.860Z,6.70
2017-09-03T20:25:29.503Z,6.23
2017-09-03T20:27:57.067Z,5.20
2017-09-03T20:30:25.131Z,5.80
2017-09-03T20:32:53.315Z,3.60
2017-09-03T20:35:20.937Z,6.10
2017-09-03T20:37:48.563Z,6.07
2017-09-03T20:40:16.142Z,6.40
2017-09-03T20:42:44.092Z,6.47
2017-09-03T20:45:11.670Z,4.97
2017-09-03T20:47:39.341Z,10.47
2017-09-03T20:50:06.974Z,7.93
2017-09-03T20:52:34.543Z,10.40
2017-09-03T20:55:02.574Z,4.90
2017-09-03T20:57:30.155Z,5.23
2017-09-03T20:59:57.734Z,9.80
2017-09-03T21:02:25.354Z,5.23
2017-09-03T21:04:52.939Z,6.40
2017-09-03T21:07:21.720Z,5.20
2017-09-03T21:09:49.287Z,5.17
2017-09-03T21:12:16.975Z,3.60
2017-09-03T21:14:44.595Z,6.47
2017-09-03T21:17:12.337Z,6.67
2017-09-03T21:19:40.410Z,5.97
2017-09-03T21:22:08.006Z,6.87
2017-09-03T21:24:35.569Z,7.77
2017-09-03T21:27:03.433Z,9.00
2017-09-03T21:29:31.000Z,4.93
2017-09-03T21:31:58.963Z,3.90
2017-09-03T21:34:26.600Z,6.57
2017-09-03T21:36:54.188Z,4.53
2017-09-03T21:39:21.796Z,5.37
2017-09-03T21:41:49.490Z,8.73
2017-09-03T21:44:17.445Z,3.80
2017-09-03T21:46:45.035Z,11.80
2017-09-03T21:49:12.843Z,10.83
2017-09-03T21:51:40.467Z,7.00
2017-09-03T21:54:08.162Z,4.90
2017-09-03T21:56:36.060Z,4.60
2017-09-03T21:59:03.612Z,3.50
2017-09-03T22:01:31.230Z,5.70
2017-09-03T22:03:58.966Z,4.07
2017-09-03T22:06:26.518Z,8.10
2017-09-03T22:08:54.448Z,7.30
2017-09-03T22:11:22.008Z,4.47
2017-09-03T22:13:49.589Z,4.30
2017-09-03T22:16:17.201Z,12.13
2017-09-03T22:18:44.782Z,5.47
2017-09-03T22:21:12.810Z,3.73
2017-09-03T22:23:40.363Z,5.27
2017-09-03T22:26:07.955Z,6.97
2017-09-03T22:28:35.551Z,5.60
2017-09-03T22:31:03.095Z,4.30
2017-09-03T22:33:31.122Z,5.77
2017-09-03T22:35:58.689Z,4.53
2017-09-03T22:38:26.248Z,6.23
2017-09-03T22:40:53.846Z,5.60
2017-09-03T22:43:21.397Z,8.63
2017-09-03T22:45:49.260Z,7.07
2017-09-03T22:48:16.817Z,3.13
2017-09-03T22:50:44.373Z,5.73
2017-09-03T22:53:11.990Z,6.60
2017-09-03T22:55:39.551Z,4.63
2017-09-03T22:58:07.484Z,7.03
2017-09-03T23:00:47.628Z,5.47
2017-09-03T23:03:16.482Z,5.77
2017-09-03T23:05:44.100Z,6.10
2017-09-03T23:08:11.665Z,5.90
2017-09-03T23:10:39.300Z,5.63
2017-09-03T23:13:06.890Z,4.70
2017-09-03T23:15:34.896Z,7.03
2017-09-03T23:18:02.539Z,7.33
2017-09-03T23:20:30.122Z,6.93
2017-09-03T23:22:57.743Z,6.60
2017-09-03T23:25:25.342Z,6.63
2017-09-03T23:27:53.402Z,5.57
2017-09-03T23:30:20.966Z,7.10
2017-09-03T23:32:48.545Z,11.40
2017-09-03T23:35:16.163Z,8.30
2017-09-03T23:37:43.781Z,8.03
2017-09-03T23:40:11.646Z,11.00
2017-09-03T23:42:39.239Z,5.40
2017-09-03T23:45:06.800Z,6.53
2017-09-03T23:47:34.473Z,11.77
2017-09-03T23:50:02.069Z,8.43
2017-09-03T23:52:30.003Z,6.77
2017-09-03T23:54:57.578Z,5.57
2017-09-03T23:57:25.211Z,6.60
2017-09-03T23:59:52.832Z,8.77
